sensor_id;sensor_type;location;lat;lon;timestamp;P1;durP1;ratioP1;P2;durP2;ratioP2
19575;SDS011;41589;51.196;7.074;2023-02-23T00:02:41;4.40;;;4.20;;
19575;SDS011;41589;51.196;7.074;2023-02-23T00:07:43;4.17;;;3.97;;
19575;SDS011;41589;51.196;7.074;2023-02-23T00:12:44;4.70;;;4.40;;
19575;SDS011;41589;51.196;7.074;2023-02-23T00:17:44;4.20;;;4.00;;
19575;SDS011;41589;51.196;7.074;2023-02-23T00:22:46;4.50;;;4.30;;
19575;SDS011;41589;51.196;7.074;2023-02-23T00:27:47;3.90;;;3.70;;
19575;SDS011;41589;51.196;7.074;2023-02-23T00:32:49;5.03;;;4.73;;
19575;SDS011;41589;51.196;7.074;2023-02-23T00:37:51;4.90;;;4.60;;
19575;SDS011;41589;51.196;7.074;2023-02-23T00:42:52;4.57;;;4.37;;
19575;SDS011;41589;51.196;7.074;2023-02-23T00:47:53;5.00;;;4.70;;
19575;SDS011;41589;51.196;7.074;2023-02-23T00:52:55;4.87;;;4.60;;
19575;SDS011;41589;51.196;7.074;2023-02-23T00:57:58;4.90;;;4.70;;
19575;SDS011;41589;51.196;7.074;2023-02-23T01:02:59;4.60;;;4.40;;
19575;SDS011;41589;51.196;7.074;2023-02-23T01:07:59;5.37;;;5.07;;
19575;SDS011;41589;51.196;7.074;2023-02-23T01:12:59;5.00;;;4.60;;
19575;SDS011;41589;51.196;7.074;2023-02-23T01:18:00;5.00;;;4.80;;
19575;SDS011;41589;51.196;7.074;2023-02-23T01:23:00;4.63;;;4.43;;
19575;SDS011;41589;51.196;7.074;2023-02-23T01:28:02;4.90;;;4.70;;
19575;SDS011;41589;51.196;7.074;2023-02-23T01:33:03;5.00;;;4.70;;
19575;SDS011;41589;51.196;7.074;2023-02-23T01:38:04;4.57;;;4.37;;
19575;SDS011;41589;51.196;7.074;2023-02-23T01:43:14;4.90;;;4.60;;
19575;SDS011;41589;51.196;7.074;2023-02-23T01:48:20;4.63;;;4.43;;
19575;SDS011;41589;51.196;7.074;2023-02-23T01:53:24;4.73;;;4.53;;
19575;SDS011;41589;51.196;7.074;2023-02-23T01:58:27;4.93;;;4.67;;
19575;SDS011;41589;51.196;7.074;2023-02-23T02:03:34;4.87;;;4.67;;
19575;SDS011;41589;51.196;7.074;2023-02-23T02:08:39;4.70;;;4.50;;
19575;SDS011;41589;51.196;7.074;2023-02-23T02:13:46;5.10;;;4.83;;
19575;SDS011;41589;51.196;7.074;2023-02-23T02:18:50;5.10;;;4.90;;
19575;SDS011;41589;51.196;7.074;2023-02-23T02:46:15;4.90;;;4.70;;
19575;SDS011;41589;51.196;7.074;2023-02-23T02:51:26;4.77;;;4.57;;
19575;SDS011;41589;51.196;7.074;2023-02-23T02:56:32;5.00;;;4.80;;
19575;SDS011;41589;51.196;7.074;2023-02-23T03:01:39;4.60;;;4.40;;
19575;SDS011;41589;51.196;7.074;2023-02-23T03:06:58;5.40;;;5.10;;
19575;SDS011;41589;51.196;7.074;2023-02-23T03:12:32;5.17;;;4.90;;
19575;SDS011;41589;51.196;7.074;2023-02-23T03:18:09;5.73;;;5.43;;
19575;SDS011;41589;51.196;7.074;2023-02-23T03:23:57;5.30;;;5.00;;
19575;SDS011;41589;51.196;7.074;2023-02-23T03:29:32;5.60;;;5.30;;
19575;SDS011;41589;51.196;7.074;2023-02-23T03:35:03;5.93;;;5.63;;
19575;SDS011;41589;51.196;7.074;2023-02-23T03:40:28;5.30;;;5.00;;
19575;SDS011;41589;51.196;7.074;2023-02-23T03:45:52;5.00;;;4.80;;
19575;SDS011;41589;51.196;7.074;2023-02-23T03:51:14;5.53;;;5.23;;
19575;SDS011;41589;51.196;7.074;2023-02-23T03:56:39;5.73;;;5.37;;
19575;SDS011;41589;51.196;7.074;2023-02-23T04:02:03;6.00;;;5.70;;
19575;SDS011;41589;51.196;7.074;2023-02-23T04:07:25;5.97;;;5.67;;
19575;SDS011;41589;51.196;7.074;2023-02-23T04:12:48;5.90;;;5.60;;
19575;SDS011;41589;51.196;7.074;2023-02-23T04:18:13;5.80;;;5.50;;
19575;SDS011;41589;51.196;7.074;2023-02-23T04:23:16;5.80;;;5.50;;
19575;SDS011;41589;51.196;7.074;2023-02-23T04:28:18;5.87;;;5.50;;
19575;SDS011;41589;51.196;7.074;2023-02-23T04:33:19;5.93;;;5.63;;
19575;SDS011;41589;51.196;7.074;2023-02-23T04:38:21;5.67;;;5.37;;
19575;SDS011;41589;51.196;7.074;2023-02-23T04:43:22;5.87;;;5.57;;
19575;SDS011;41589;51.196;7.074;2023-02-23T04:48:22;5.37;;;5.07;;
19575;SDS011;41589;51.196;7.074;2023-02-23T04:53:24;5.13;;;4.83;;
19575;SDS011;41589;51.196;7.074;2023-02-23T04:58:26;6.03;;;5.73;;
19575;SDS011;41589;51.196;7.074;2023-02-23T05:03:26;6.60;;;6.20;;
19575;SDS011;41589;51.196;7.074;2023-02-23T05:08:26;6.63;;;6.23;;
19575;SDS011;41589;51.196;7.074;2023-02-23T05:13:27;6.40;;;6.10;;
19575;SDS011;41589;51.196;7.074;2023-02-23T05:18:27;5.80;;;5.47;;
19575;SDS011;41589;51.196;7.074;2023-02-23T05:23:28;5.77;;;5.43;;
19575;SDS011;41589;51.196;7.074;2023-02-23T05:28:29;5.40;;;5.10;;
19575;SDS011;41589;51.196;7.074;2023-02-23T05:33:30;5.73;;;5.40;;
19575;SDS011;41589;51.196;7.074;2023-02-23T05:38:31;5.00;;;4.70;;
19575;SDS011;41589;51.196;7.074;2023-02-23T05:43:32;5.03;;;4.73;;
19575;SDS011;41589;51.196;7.074;2023-02-23T05:48:32;5.00;;;4.70;;
19575;SDS011;41589;51.196;7.074;2023-02-23T05:53:33;5.37;;;5.07;;
19575;SDS011;41589;51.196;7.074;2023-02-23T05:58:33;4.80;;;4.50;;
19575;SDS011;41589;51.196;7.074;2023-02-23T06:03:34;5.20;;;4.80;;
19575;SDS011;41589;51.196;7.074;2023-02-23T06:08:34;5.67;;;5.37;;
19575;SDS011;41589;51.196;7.074;2023-02-23T06:13:35;5.50;;;5.20;;
19575;SDS011;41589;51.196;7.074;2023-02-23T06:18:35;5.77;;;5.40;;
19575;SDS011;41589;51.196;7.074;2023-02-23T06:23:35;5.43;;;5.13;;
19575;SDS011;41589;51.196;7.074;2023-02-23T06:28:36;5.27;;;4.97;;
19575;SDS011;41589;51.196;7.074;2023-02-23T06:33:37;5.40;;;5.10;;
19575;SDS011;41589;51.196;7.074;2023-02-23T06:38:37;5.50;;;5.10;;
19575;SDS011;41589;51.196;7.074;2023-02-23T06:43:37;5.63;;;5.33;;
19575;SDS011;41589;51.196;7.074;2023-02-23T06:48:38;5.20;;;4.90;;
19575;SDS011;41589;51.196;7.074;2023-02-23T06:53:38;5.50;;;5.20;;
19575;SDS011;41589;51.196;7.074;2023-02-23T06:58:39;5.57;;;5.27;;
19575;SDS011;41589;51.196;7.074;2023-02-23T07:03:42;5.90;;;5.50;;
19575;SDS011;41589;51.196;7.074;2023-02-23T07:08:42;5.40;;;5.10;;
19575;SDS011;41589;51.196;7.074;2023-02-23T07:13:43;5.20;;;4.90;;
19575;SDS011;41589;51.196;7.074;2023-02-23T07:18:44;5.60;;;5.30;;
19575;SDS011;41589;51.196;7.074;2023-02-23T07:23:45;5.00;;;4.70;;
19575;SDS011;41589;51.196;7.074;2023-02-23T07:28:47;5.50;;;5.20;;
19575;SDS011;41589;51.196;7.074;2023-02-23T07:33:47;5.03;;;4.77;;
19575;SDS011;41589;51.196;7.074;2023-02-23T07:38:47;5.00;;;4.70;;
19575;SDS011;41589;51.196;7.074;2023-02-23T07:43:48;4.63;;;4.33;;
19575;SDS011;41589;51.196;7.074;2023-02-23T07:48:48;4.80;;;4.50;;
19575;SDS011;41589;51.196;7.074;2023-02-23T07:53:48;4.60;;;4.30;;
19575;SDS011;41589;51.196;7.074;2023-02-23T07:58:49;5.00;;;4.67;;
19575;SDS011;41589;51.196;7.074;2023-02-23T08:03:50;5.60;;;5.30;;
19575;SDS011;41589;51.196;7.074;2023-02-23T08:08:51;4.77;;;4.47;;
19575;SDS011;41589;51.196;7.074;2023-02-23T08:13:51;5.47;;;5.17;;
19575;SDS011;41589;51.196;7.074;2023-02-23T08:18:51;7.30;;;6.80;;
19575;SDS011;41589;51.196;7.074;2023-02-23T08:23:52;7.07;;;6.47;;
19575;SDS011;41589;51.196;7.074;2023-02-23T08:28:52;11.13;;;9.33;;
19575;SDS011;41589;51.196;7.074;2023-02-23T08:33:53;13.97;;;10.23;;
19575;SDS011;41589;51.196;7.074;2023-02-23T08:38:54;11.20;;;8.77;;
19575;SDS011;41589;51.196;7.074;2023-02-23T08:43:54;10.13;;;9.27;;
19575;SDS011;41589;51.196;7.074;2023-02-23T08:48:57;9.50;;;8.70;;
19575;SDS011;41589;51.196;7.074;2023-02-23T08:53:57;9.40;;;8.67;;
19575;SDS011;41589;51.196;7.074;2023-02-23T08:58:57;8.30;;;7.77;;
19575;SDS011;41589;51.196;7.074;2023-02-23T09:03:58;8.27;;;7.67;;
19575;SDS011;41589;51.196;7.074;2023-02-23T09:08:59;9.27;;;8.57;;
19575;SDS011;41589;51.196;7.074;2023-02-23T09:14:00;8.30;;;7.60;;
19575;SDS011;41589;51.196;7.074;2023-02-23T09:19:01;8.53;;;7.83;;
19575;SDS011;41589;51.196;7.074;2023-02-23T09:24:02;7.60;;;7.00;;
19575;SDS011;41589;51.196;7.074;2023-02-23T09:29:02;8.57;;;7.87;;
19575;SDS011;41589;51.196;7.074;2023-02-23T09:34:03;7.23;;;6.73;;
19575;SDS011;41589;51.196;7.074;2023-02-23T09:39:03;7.30;;;6.80;;
19575;SDS011;41589;51.196;7.074;2023-02-23T09:44:13;6.00;;;5.60;;
19575;SDS011;41589;51.196;7.074;2023-02-23T09:49:22;6.73;;;6.33;;
19575;SDS011;41589;51.196;7.074;2023-02-23T09:54:28;6.43;;;6.03;;
19575;SDS011;41589;51.196;7.074;2023-02-23T09:59:31;6.73;;;6.33;;
19575;SDS011;41589;51.196;7.074;2023-02-23T10:20:18;6.30;;;5.90;;
19575;SDS011;41589;51.196;7.074;2023-02-23T10:25:26;5.53;;;5.13;;
19575;SDS011;41589;51.196;7.074;2023-02-23T10:30:30;6.03;;;5.63;;
19575;SDS011;41589;51.196;7.074;2023-02-23T10:35:32;5.10;;;4.80;;
19575;SDS011;41589;51.196;7.074;2023-02-23T10:40:33;5.10;;;4.80;;
19575;SDS011;41589;51.196;7.074;2023-02-23T10:45:36;4.80;;;4.50;;
19575;SDS011;41589;51.196;7.074;2023-02-23T10:50:43;5.53;;;5.13;;
19575;SDS011;41589;51.196;7.074;2023-02-23T10:55:45;5.63;;;5.27;;
19575;SDS011;41589;51.196;7.074;2023-02-23T11:01:00;6.17;;;5.77;;
19575;SDS011;41589;51.196;7.074;2023-02-23T11:06:03;7.37;;;6.87;;
19575;SDS011;41589;51.196;7.074;2023-02-23T11:11:05;8.53;;;7.93;;
19575;SDS011;41589;51.196;7.074;2023-02-23T11:16:15;8.93;;;8.33;;
19575;SDS011;41589;51.196;7.074;2023-02-23T11:21:31;9.03;;;8.43;;
19575;SDS011;41589;51.196;7.074;2023-02-23T11:31:34;9.13;;;8.53;;
19575;SDS011;41589;51.196;7.074;2023-02-23T11:36:35;8.90;;;8.30;;
19575;SDS011;41589;51.196;7.074;2023-02-23T11:41:36;9.00;;;8.40;;
19575;SDS011;41589;51.196;7.074;2023-02-23T11:46:37;9.77;;;9.07;;
19575;SDS011;41589;51.196;7.074;2023-02-23T11:51:39;9.77;;;9.10;;
19575;SDS011;41589;51.196;7.074;2023-02-23T11:56:47;9.30;;;8.70;;
19575;SDS011;41589;51.196;7.074;2023-02-23T12:02:02;13.10;;;11.87;;
19575;SDS011;41589;51.196;7.074;2023-02-23T12:13:24;11.33;;;10.53;;
19575;SDS011;41589;51.196;7.074;2023-02-23T12:23:42;13.27;;;12.27;;
19575;SDS011;41589;51.196;7.074;2023-02-23T12:28:55;12.00;;;11.10;;
19575;SDS011;41589;51.196;7.074;2023-02-23T12:34:03;9.97;;;9.17;;
19575;SDS011;41589;51.196;7.074;2023-02-23T12:39:30;9.10;;;8.50;;
19575;SDS011;41589;51.196;7.074;2023-02-23T12:44:46;7.93;;;7.33;;
19575;SDS011;41589;51.196;7.074;2023-02-23T12:50:10;8.83;;;8.23;;
19575;SDS011;41589;51.196;7.074;2023-02-23T12:55:19;8.37;;;7.77;;
19575;SDS011;41589;51.196;7.074;2023-02-23T13:11:33;6.30;;;5.90;;
19575;SDS011;41589;51.196;7.074;2023-02-23T13:16:41;6.23;;;5.83;;
19575;SDS011;41589;51.196;7.074;2023-02-23T13:21:46;5.90;;;5.50;;
19575;SDS011;41589;51.196;7.074;2023-02-23T14:10:03;4.13;;;3.93;;
19575;SDS011;41589;51.196;7.074;2023-02-23T14:25:45;4.20;;;4.00;;
19575;SDS011;41589;51.196;7.074;2023-02-23T14:41:37;8.70;;;8.20;;
19575;SDS011;41589;51.196;7.074;2023-02-23T14:46:47;3.63;;;3.43;;
19575;SDS011;41589;51.196;7.074;2023-02-23T14:51:54;4.10;;;3.90;;
19575;SDS011;41589;51.196;7.074;2023-02-23T14:57:03;4.20;;;4.00;;
19575;SDS011;41589;51.196;7.074;2023-02-23T15:02:07;3.70;;;3.50;;
19575;SDS011;41589;51.196;7.074;2023-02-23T15:07:13;3.37;;;3.17;;
19575;SDS011;41589;51.196;7.074;2023-02-23T15:12:29;3.47;;;3.30;;
19575;SDS011;41589;51.196;7.074;2023-02-23T15:17:35;3.07;;;2.97;;
19575;SDS011;41589;51.196;7.074;2023-02-23T15:22:40;3.50;;;3.30;;
19575;SDS011;41589;51.196;7.074;2023-02-23T15:27:42;3.60;;;3.40;;
19575;SDS011;41589;51.196;7.074;2023-02-23T15:32:44;3.50;;;3.30;;
19575;SDS011;41589;51.196;7.074;2023-02-23T15:37:45;3.50;;;3.30;;
19575;SDS011;41589;51.196;7.074;2023-02-23T15:42:50;3.73;;;3.53;;
19575;SDS011;41589;51.196;7.074;2023-02-23T15:47:55;4.37;;;4.17;;
19575;SDS011;41589;51.196;7.074;2023-02-23T15:53:06;3.97;;;3.77;;
19575;SDS011;41589;51.196;7.074;2023-02-23T15:58:26;3.90;;;3.70;;
19575;SDS011;41589;51.196;7.074;2023-02-23T16:03:37;4.20;;;4.00;;
19575;SDS011;41589;51.196;7.074;2023-02-23T16:08:56;4.07;;;3.87;;
19575;SDS011;41589;51.196;7.074;2023-02-23T16:14:11;3.93;;;3.73;;
19575;SDS011;41589;51.196;7.074;2023-02-23T16:19:16;4.90;;;4.60;;
19575;SDS011;41589;51.196;7.074;2023-02-23T16:24:22;4.07;;;3.87;;
19575;SDS011;41589;51.196;7.074;2023-02-23T16:29:30;3.70;;;3.40;;
19575;SDS011;41589;51.196;7.074;2023-02-23T16:34:45;4.00;;;3.80;;
19575;SDS011;41589;51.196;7.074;2023-02-23T16:39:50;3.77;;;3.53;;
19575;SDS011;41589;51.196;7.074;2023-02-23T16:44:51;3.90;;;3.70;;
19575;SDS011;41589;51.196;7.074;2023-02-23T16:49:52;3.87;;;3.53;;
19575;SDS011;41589;51.196;7.074;2023-02-23T16:54:53;4.00;;;3.80;;
19575;SDS011;41589;51.196;7.074;2023-02-23T16:59:53;4.60;;;4.30;;
19575;SDS011;41589;51.196;7.074;2023-02-23T17:04:56;3.87;;;3.67;;
19575;SDS011;41589;51.196;7.074;2023-02-23T17:09:57;3.97;;;3.77;;
19575;SDS011;41589;51.196;7.074;2023-02-23T17:14:58;5.03;;;4.73;;
19575;SDS011;41589;51.196;7.074;2023-02-23T17:20:02;4.47;;;4.27;;
19575;SDS011;41589;51.196;7.074;2023-02-23T17:25:05;4.97;;;4.67;;
19575;SDS011;41589;51.196;7.074;2023-02-23T17:30:06;5.10;;;4.80;;
19575;SDS011;41589;51.196;7.074;2023-02-23T17:35:08;5.03;;;4.73;;
19575;SDS011;41589;51.196;7.074;2023-02-23T17:40:14;4.90;;;4.60;;
19575;SDS011;41589;51.196;7.074;2023-02-23T17:45:26;5.10;;;4.80;;
19575;SDS011;41589;51.196;7.074;2023-02-23T17:50:27;5.10;;;4.80;;
19575;SDS011;41589;51.196;7.074;2023-02-23T17:55:28;5.30;;;4.90;;
19575;SDS011;41589;51.196;7.074;2023-02-23T18:00:29;5.27;;;4.87;;
19575;SDS011;41589;51.196;7.074;2023-02-23T18:05:34;5.27;;;4.97;;
19575;SDS011;41589;51.196;7.074;2023-02-23T18:10:35;5.50;;;5.10;;
19575;SDS011;41589;51.196;7.074;2023-02-23T18:15:38;5.07;;;4.77;;
19575;SDS011;41589;51.196;7.074;2023-02-23T18:20:38;4.97;;;4.63;;
19575;SDS011;41589;51.196;7.074;2023-02-23T18:25:42;5.00;;;4.70;;
19575;SDS011;41589;51.196;7.074;2023-02-23T18:30:43;4.07;;;3.77;;
19575;SDS011;41589;51.196;7.074;2023-02-23T18:35:46;4.13;;;3.83;;
19575;SDS011;41589;51.196;7.074;2023-02-23T18:40:47;3.90;;;3.60;;
19575;SDS011;41589;51.196;7.074;2023-02-23T18:45:48;3.77;;;3.57;;
19575;SDS011;41589;51.196;7.074;2023-02-23T18:50:53;3.47;;;3.27;;
19575;SDS011;41589;51.196;7.074;2023-02-23T18:56:05;4.00;;;3.70;;
19575;SDS011;41589;51.196;7.074;2023-02-23T19:01:11;4.03;;;3.83;;
19575;SDS011;41589;51.196;7.074;2023-02-23T19:06:17;4.10;;;3.80;;
19575;SDS011;41589;51.196;7.074;2023-02-23T19:11:36;3.60;;;3.40;;
19575;SDS011;41589;51.196;7.074;2023-02-23T19:16:40;4.70;;;4.40;;
19575;SDS011;41589;51.196;7.074;2023-02-23T19:21:42;4.17;;;3.93;;
19575;SDS011;41589;51.196;7.074;2023-02-23T19:26:46;4.57;;;4.27;;
19575;SDS011;41589;51.196;7.074;2023-02-23T19:31:48;4.37;;;4.07;;
19575;SDS011;41589;51.196;7.074;2023-02-23T19:36:52;3.80;;;3.60;;
19575;SDS011;41589;51.196;7.074;2023-02-23T19:41:53;4.13;;;3.83;;
19575;SDS011;41589;51.196;7.074;2023-02-23T19:46:54;4.03;;;3.83;;
19575;SDS011;41589;51.196;7.074;2023-02-23T19:51:57;3.77;;;3.57;;
19575;SDS011;41589;51.196;7.074;2023-02-23T19:56:59;3.57;;;3.37;;
19575;SDS011;41589;51.196;7.074;2023-02-23T20:02:03;3.80;;;3.60;;
19575;SDS011;41589;51.196;7.074;2023-02-23T20:07:04;4.10;;;3.90;;
19575;SDS011;41589;51.196;7.074;2023-02-23T20:12:10;3.83;;;3.53;;
19575;SDS011;41589;51.196;7.074;2023-02-23T20:17:11;3.73;;;3.47;;
19575;SDS011;41589;51.196;7.074;2023-02-23T20:22:15;4.17;;;3.87;;
19575;SDS011;41589;51.196;7.074;2023-02-23T20:27:16;3.83;;;3.63;;
19575;SDS011;41589;51.196;7.074;2023-02-23T20:32:19;3.83;;;3.63;;
19575;SDS011;41589;51.196;7.074;2023-02-23T20:37:22;3.40;;;3.20;;
19575;SDS011;41589;51.196;7.074;2023-02-23T20:42:23;3.50;;;3.30;;
19575;SDS011;41589;51.196;7.074;2023-02-23T20:47:27;3.50;;;3.30;;
19575;SDS011;41589;51.196;7.074;2023-02-23T20:52:27;4.20;;;3.90;;
19575;SDS011;41589;51.196;7.074;2023-02-23T20:57:28;3.93;;;3.73;;
19575;SDS011;41589;51.196;7.074;2023-02-23T21:02:29;3.80;;;3.60;;
19575;SDS011;41589;51.196;7.074;2023-02-23T21:07:30;3.90;;;3.70;;
19575;SDS011;41589;51.196;7.074;2023-02-23T21:12:31;4.23;;;3.93;;
19575;SDS011;41589;51.196;7.074;2023-02-23T21:17:33;4.20;;;3.90;;
19575;SDS011;41589;51.196;7.074;2023-02-23T21:22:37;4.20;;;3.90;;
19575;SDS011;41589;51.196;7.074;2023-02-23T21:27:38;4.47;;;4.17;;
19575;SDS011;41589;51.196;7.074;2023-02-23T21:32:39;4.27;;;4.00;;
19575;SDS011;41589;51.196;7.074;2023-02-23T21:37:40;4.50;;;4.20;;
19575;SDS011;41589;51.196;7.074;2023-02-23T21:42:42;4.27;;;3.97;;
19575;SDS011;41589;51.196;7.074;2023-02-23T21:47:43;3.83;;;3.53;;
19575;SDS011;41589;51.196;7.074;2023-02-23T21:52:45;4.20;;;3.90;;
19575;SDS011;41589;51.196;7.074;2023-02-23T21:57:47;4.13;;;3.83;;
19575;SDS011;41589;51.196;7.074;2023-02-23T22:02:49;4.53;;;4.23;;
19575;SDS011;41589;51.196;7.074;2023-02-23T22:07:50;4.30;;;4.00;;
19575;SDS011;41589;51.196;7.074;2023-02-23T22:12:53;4.13;;;3.83;;
19575;SDS011;41589;51.196;7.074;2023-02-23T22:17:56;4.20;;;3.90;;
19575;SDS011;41589;51.196;7.074;2023-02-23T22:22:56;4.40;;;4.10;;
19575;SDS011;41589;51.196;7.074;2023-02-23T22:27:56;4.23;;;3.93;;
19575;SDS011;41589;51.196;7.074;2023-02-23T22:32:57;4.33;;;4.03;;
19575;SDS011;41589;51.196;7.074;2023-02-23T22:37:57;3.60;;;3.40;;
19575;SDS011;41589;51.196;7.074;2023-02-23T22:43:00;3.30;;;3.10;;
19575;SDS011;41589;51.196;7.074;2023-02-23T22:48:00;3.00;;;2.90;;
19575;SDS011;41589;51.196;7.074;2023-02-23T22:53:02;4.47;;;3.73;;
19575;SDS011;41589;51.196;7.074;2023-02-23T22:58:03;5.83;;;4.37;;
19575;SDS011;41589;51.196;7.074;2023-02-23T23:03:07;4.77;;;4.40;;
19575;SDS011;41589;51.196;7.074;2023-02-23T23:08:08;5.63;;;5.23;;
19575;SDS011;41589;51.196;7.074;2023-02-23T23:13:08;4.43;;;4.23;;
19575;SDS011;41589;51.196;7.074;2023-02-23T23:18:10;4.43;;;4.17;;
19575;SDS011;41589;51.196;7.074;2023-02-23T23:23:14;4.20;;;4.00;;
19575;SDS011;41589;51.196;7.074;2023-02-23T23:28:16;4.33;;;4.03;;
19575;SDS011;41589;51.196;7.074;2023-02-23T23:33:17;4.73;;;4.43;;
19575;SDS011;41589;51.196;7.074;2023-02-23T23:38:18;4.30;;;4.10;;
19575;SDS011;41589;51.196;7.074;2023-02-23T23:43:19;3.90;;;3.70;;
19575;SDS011;41589;51.196;7.074;2023-02-23T23:48:20;3.90;;;3.60;;
19575;SDS011;41589;51.196;7.074;2023-02-23T23:53:20;3.50;;;3.30;;
19575;SDS011;41589;51.196;7.074;2023-02-23T23:58:23;2.97;;;2.77;;
